Main page
METAR-TAF:

METAR-TAF

Airports :

Zagreb, Croatia

Zagreb Airport

latitude: 45-44N, longitude: 016-04E, elevation: 106 m

Current weather observation

The report was made 15 minutes ago, at 22:30 UTC
Wind 4 kt from the East/Northeast, varying between North/Northeast and East/Southeast
Temperature 11°C
Humidity 76%
Pressure 1021 hPa
Visibility 10 km or more
Few clouds at a height of 2000 ft

METAR: LDZA 262230Z 07004KT 030V120 9999 FEW020 11/07 Q1021 NOSIG

Time: 00:45 (22:45 UTC)

Forecast

The report was made 1 hour and 48 minutes ago, at 20:57 UTC
Forecast valid from 26 at 20 UTC to 27 at 18 UTC
Wind 6 kt from the Northeast
Visibility 10 km or more
no clouds below 1500 m and no cumulonimbus

TAF: LDZA 262057Z 2620/2718 05006KT CAVOK TX21/2713Z TN11/2704Z

Weather observations and forecasts of more than 4000 airports (METAR and TAF reports).

The available stations are represented by yellow and red dots on the map.

Hover mouse over dot to see the name of the station.

Then click to see weather observations and forecasts.

To change the map : click on the green buttons with a black cross to zoom in, on the green button with a dash to zoom out, or on the green arrows for adjacent maps.


METAR-TAF: